Tecumseh — WTW9257 — position and weather

sailwx.info

Track history (hours):
 
Tides and Currents Weather Stations Pressure Air Temp Water Temp Dewpoint Dewpoint Depression Visibility Wind Speed Wind Dir Waves Ship Positions

Tecumseh

Owner: Sause Bros. Inc., COOS BAY, OR. More information available from US FCC via Universal Licensing System and Coast Guard Vessel Documentation Center.

Last reported at 2017-Mar-25 20:26 UTC. Time now 2017-Mar-25 23:41 UTC.
Position N 38°20' W 123°46'.

Length 90 m; draft 5 m.

Type: Towing. MMSI: 367133160.

Date/timePositionNaut miles runAvg speedWind from/ knotsBaromVisibWave heightAir tempDewpointWater temp
2017-Mar-25 20:26N 38°20' W 123°46'7 7.5
2017-Mar-25 19:29N 38°15' W 123°39'7 7.4
2017-Mar-25 18:32N 38°13' W 123°31'7 7.0
2017-Mar-25 17:33N 38°10' W 123°23'7 6.8
2017-Mar-25 16:33N 38°06' W 123°16'7 6.9
2017-Mar-25 15:33N 38°01' W 123°10'7 7.2
2017-Mar-25 14:33N 37°56' W 123°03'7 7.3
2017-Mar-25 13:33N 37°53' W 122°55'8 7.4
2017-Mar-25 12:32N 37°49' W 122°47'7 7.0
2017-Mar-25 11:33N 37°46' W 122°39'8 7.7
2017-Mar-25 10:33N 37°49' W 122°30'6 6.3
2017-Mar-25 09:33N 37°54' W 122°25'1 1.4
2017-Mar-25 08:33N 37°55' W 122°25'0 0.1
2017-Mar-25 07:31N 37°55' W 122°25'0 0.0
2017-Mar-25 06:31N 37°55' W 122°25'0 0.0
2017-Mar-25 05:28N 37°55' W 122°25'0 0.0
2017-Mar-25 04:31N 37°55' W 122°25'0 0.0
2017-Mar-25 03:31N 37°55' W 122°25'0 0.0
2017-Mar-25 02:31N 37°55' W 122°25'0 0.0
2017-Mar-25 01:31N 37°55' W 122°25'0 0.0
2017-Mar-25 00:31N 37°55' W 122°25'0 0.0
2017-Mar-24 23:31N 37°55' W 122°25'0 0.0
2017-Mar-24 22:31N 37°55' W 122°25'0 0.0
2017-Mar-24 21:31N 37°55' W 122°25'0 0.0
2017-Mar-24 20:31N 37°55' W 122°25'0 0.0
2017-Mar-24 19:31N 37°55' W 122°25'0 0.0
2017-Mar-24 18:31N 37°55' W 122°25'0 0.0
2017-Mar-24 17:31N 37°55' W 122°25'0 0.0
2017-Mar-24 16:28N 37°55' W 122°25'0 0.0
2017-Mar-24 15:28N 37°55' W 122°25'0 0.1
2017-Mar-24 14:33N 37°55' W 122°25'1 1.5
2017-Mar-24 13:33N 37°54' W 122°26'8 7.8
2017-Mar-24 12:33N 37°47' W 122°23'0 0.2
2017-Mar-24 11:33N 37°46' W 122°23'0 0.0
2017-Mar-24 10:30N 37°46' W 122°23'0 0.0
2017-Mar-24 09:33N 37°46' W 122°23'0 0.0
2017-Mar-24 08:33N 37°46' W 122°23'0 0.0
2017-Mar-24 07:33N 37°46' W 122°23'0 0.0
2017-Mar-24 06:30N 37°46' W 122°23'0 0.0
2017-Mar-24 05:33N 37°46' W 122°23'0 0.0
2017-Mar-24 04:33N 37°46' W 122°23'0 0.0
2017-Mar-24 03:33N 37°46' W 122°23'0 0.0
2017-Mar-24 02:33N 37°46' W 122°23'0 0.0
2017-Mar-24 01:33N 37°46' W 122°23'0 0.0
2017-Mar-24 00:33N 37°46' W 122°23'0 0.0
2017-Mar-23 23:33N 37°46' W 122°23'0 0.0
2017-Mar-23 22:33N 37°46' W 122°23'0 0.0
2017-Mar-23 21:30N 37°46' W 122°23'0 0.0
2017-Mar-23 20:33N 37°46' W 122°23'0 0.0
2017-Mar-23 19:33N 37°46' W 122°23'0 0.0
2017-Mar-23 18:33N 37°46' W 122°23'0 0.0
2017-Mar-23 17:30N 37°46' W 122°23'0 0.0
2017-Mar-23 16:33N 37°46' W 122°23'0 0.0
2017-Mar-23 15:33N 37°46' W 122°23'0 0.0
2017-Mar-23 14:33N 37°46' W 122°23'0 0.0
2017-Mar-23 13:33N 37°46' W 122°23'0 0.0
2017-Mar-23 12:33N 37°46' W 122°23'0 0.0
2017-Mar-23 11:33N 37°46' W 122°23'0 0.0
2017-Mar-23 10:33N 37°46' W 122°23'0 0.0
2017-Mar-23 09:33N 37°46' W 122°23'0 0.0
2017-Mar-23 08:33N 37°46' W 122°23'0 0.0
2017-Mar-23 07:33N 37°46' W 122°23'0 0.0
2017-Mar-23 06:33N 37°46' W 122°23'0 0.0
2017-Mar-23 05:33N 37°46' W 122°23'0 0.0
2017-Mar-23 04:33N 37°46' W 122°23'0 0.0
2017-Mar-23 03:33N 37°46' W 122°23'0 0.0
2017-Mar-23 02:33N 37°46' W 122°23'0 0.0
2017-Mar-23 01:33N 37°46' W 122°23'0 0.0
2017-Mar-23 00:33N 37°46' W 122°23'0 0.0
2017-Mar-22 23:33N 37°46' W 122°23'0 0.0
2017-Mar-22 22:30N 37°46' W 122°23'0 0.0
2017-Mar-22 21:33N 37°46' W 122°23'0 0.0
2017-Mar-22 20:33N 37°46' W 122°23'0 0.0
2017-Mar-22 19:30N 37°46' W 122°23'0 0.0
2017-Mar-22 18:33N 37°46' W 122°23'0 0.0
2017-Mar-22 17:33N 37°46' W 122°23'0 0.0
2017-Mar-22 16:33N 37°46' W 122°23'0 0.0
2017-Mar-22 15:33N 37°46' W 122°23'0 0.0
2017-Mar-22 14:33N 37°46' W 122°23'0 0.0
2017-Mar-22 13:33N 37°46' W 122°23'0 0.0
2017-Mar-22 12:33N 37°46' W 122°23'0 0.0
2017-Mar-22 11:33N 37°46' W 122°23'0 0.0
2017-Mar-22 10:33N 37°46' W 122°23'0 0.0
2017-Mar-22 09:33N 37°46' W 122°23'0 0.0
2017-Mar-22 08:33N 37°46' W 122°23'0 0.0
2017-Mar-22 07:33N 37°46' W 122°23'0 0.0
2017-Mar-22 06:33N 37°46' W 122°23'0 0.0
2017-Mar-22 05:33N 37°46' W 122°23'0 0.0
2017-Mar-22 04:33N 37°46' W 122°23'0 0.0
2017-Mar-22 03:33N 37°46' W 122°23'0 0.0
2017-Mar-22 02:30N 37°46' W 122°23'0 0.0
2017-Mar-22 01:33N 37°46' W 122°23'0 0.0
2017-Mar-22 00:33N 37°46' W 122°23'0 0.0
2017-Mar-21 23:33N 37°46' W 122°23'0 0.0
2017-Mar-21 22:33N 37°46' W 122°23'0 0.0
2017-Mar-21 21:33N 37°46' W 122°23'0 0.0
2017-Mar-21 20:30N 37°46' W 122°23'0 0.0
2017-Mar-21 19:33N 37°46' W 122°23'0 0.0
2017-Mar-21 18:33N 37°46' W 122°23'0 0.0
2017-Mar-21 17:33N 37°46' W 122°23'0 0.0
2017-Mar-21 16:33N 37°46' W 122°23'0 0.0
2017-Mar-21 15:33N 37°46' W 122°23'0 0.0
2017-Mar-21 14:30N 37°46' W 122°23'0 0.0
2017-Mar-21 13:30N 37°46' W 122°23'0 0.0
2017-Mar-21 12:30N 37°46' W 122°23'0 0.0
2017-Mar-21 11:30N 37°46' W 122°23'0 0.0
2017-Mar-21 10:33N 37°46' W 122°23'0 0.0
2017-Mar-21 09:33N 37°46' W 122°23'0 0.0
2017-Mar-21 08:33N 37°46' W 122°23'0 0.0
2017-Mar-21 07:33N 37°46' W 122°23'0 0.0
2017-Mar-21 06:33N 37°46' W 122°23'0 0.0
2017-Mar-21 05:33N 37°46' W 122°23'0 0.0
2017-Mar-21 04:33N 37°46' W 122°23'0 0.0
2017-Mar-21 03:33N 37°46' W 122°23'0 0.0
2017-Mar-21 02:33N 37°46' W 122°23'0 0.0
2017-Mar-21 01:33N 37°46' W 122°23'0 0.4
2017-Mar-21 00:34N 37°47' W 122°23'6 5.9
2017-Mar-20 23:33N 37°49' W 122°30'7 7.5
2017-Mar-20 22:34N 37°46' W 122°38'8 8.3
2017-Mar-20 21:33N 37°37' W 122°40'8 8.4
2017-Mar-20 20:34N 37°29' W 122°40'9 8.9
2017-Mar-20 19:33N 37°20' W 122°40'9 8.6
2017-Mar-20 18:33N 37°12' W 122°41'18 8.4
2017-Mar-20 16:28N 36°54' W 122°44'8 8.2
2017-Mar-20 15:27N 36°46' W 122°43'18 9.3
2017-Mar-20 13:31N 36°29' W 122°34'9 9.4
2017-Mar-20 12:33N 36°21' W 122°29'9 8.9
2017-Mar-20 11:33N 36°13' W 122°25'8 8.4
2017-Mar-20 10:33N 36°05' W 122°20'10 9.1
2017-Mar-20 09:25N 35°56' W 122°14'8 9.3
2017-Mar-20 08:33N 35°49' W 122°10'9 8.9
2017-Mar-20 07:34N 35°41' W 122°05'9 8.6
2017-Mar-20 06:33N 35°33' W 122°00'8 8.5
2017-Mar-20 05:33N 35°27' W 121°54'9 9.0
2017-Mar-20 04:33N 35°19' W 121°49'9 8.9
2017-Mar-20 03:33N 35°11' W 121°43'9 9.0
2017-Mar-20 02:34N 35°03' W 121°38'9 8.8
2017-Mar-20 01:33N 34°56' W 121°32'9 9.0
2017-Mar-20 00:33N 34°48' W 121°27'9 9.1
2017-Mar-19 23:33N 34°40' W 121°21'9 9.2
2017-Mar-19 22:33N 34°32' W 121°15'9 9.4
2017-Mar-19 21:33N 34°24' W 121°10'10 9.8
2017-Mar-19 20:33N 34°14' W 121°06'10 9.7
2017-Mar-19 19:33N 34°06' W 121°00'9 9.1
2017-Mar-19 18:33N 34°01' W 120°51'9 9.3
2017-Mar-19 17:33N 33°57' W 120°41'9 9.4
2017-Mar-19 16:33N 33°53' W 120°31'10 9.6
2017-Mar-19 15:33N 33°49' W 120°20'10 9.7
2017-Mar-19 14:32N 33°45' W 120°10'9 9.3
2017-Mar-19 13:33N 33°44' W 119°59'1010.0
2017-Mar-19 12:33N 33°44' W 119°47'10 9.9
2017-Mar-19 11:32N 33°43' W 119°34'1010.0
2017-Mar-19 10:33N 33°42' W 119°23'10 9.6
2017-Mar-19 09:33N 33°41' W 119°11'9 9.3
2017-Mar-19 08:34N 33°41' W 119°00'10 9.8
2017-Mar-19 07:32N 33°40' W 118°48'9 9.4
2017-Mar-19 06:33N 33°39' W 118°37'9 9.3
2017-Mar-19 05:33N 33°39' W 118°26'9 9.3
2017-Mar-19 04:33N 33°39' W 118°15'6 5.9
2017-Mar-19 03:33N 33°44' W 118°13'2 2.1
2017-Mar-19 02:33N 33°46' W 118°13'0 0.1
2017-Mar-19 01:33N 33°46' W 118°13'0 0.3
2017-Mar-19 00:33N 33°46' W 118°13'0 0.0
2017-Mar-18 23:30N 33°46' W 118°13'0 0.0
2017-Mar-18 22:30N 33°46' W 118°13'0 0.0
2017-Mar-18 21:18N 33°46' W 118°13'0 0.0
2017-Mar-18 20:30N 33°46' W 118°13'0 0.0
2017-Mar-18 19:33N 33°46' W 118°13'0 0.0
2017-Mar-18 15:23N 33°46' W 118°13'0 0.2
2017-Mar-18 14:26N 33°46' W 118°13'0 0.0
2017-Mar-18 13:20N 33°46' W 118°13'0 0.0
2017-Mar-18 11:14N 33°46' W 118°13'0 0.0
2017-Mar-18 10:32N 33°46' W 118°13'0 0.0
2017-Mar-18 09:20N 33°46' W 118°13'0 0.0
2017-Mar-18 08:32N 33°46' W 118°13'0 0.0
2017-Mar-18 06:32N 33°46' W 118°13'0 0.0
2017-Mar-18 05:32N 33°46' W 118°13'0 0.0
2017-Mar-18 04:14N 33°46' W 118°13'0 0.0
2017-Mar-18 03:32N 33°46' W 118°13'0 0.0
2017-Mar-18 02:20N 33°46' W 118°13'0 0.0
2017-Mar-18 01:32N 33°46' W 118°13'0 0.0
2017-Mar-18 00:32N 33°46' W 118°13'0 0.0
2017-Mar-17 23:32N 33°46' W 118°13'0 0.0
2017-Mar-17 22:26N 33°46' W 118°13'0 0.0
2017-Mar-17 21:08N 33°46' W 118°13'0 0.0
2017-Mar-17 20:32N 33°46' W 118°13'0 0.0
2017-Mar-17 14:20N 33°46' W 118°13'0 0.0
2017-Mar-17 12:26N 33°46' W 118°13'0 0.1
2017-Mar-17 11:07N 33°46' W 118°13'0 0.2
2017-Mar-17 10:31N 33°46' W 118°13'0 0.0
2017-Mar-17 09:25N 33°46' W 118°13'0 0.0
2017-Mar-17 08:31N 33°46' W 118°13'0 0.0
2017-Mar-17 07:31N 33°46' W 118°13'0 0.0
2017-Mar-17 06:31N 33°46' W 118°13'0 0.0
2017-Mar-17 05:31N 33°46' W 118°13'0 0.0
2017-Mar-17 03:25N 33°46' W 118°13'0 0.0
2017-Mar-17 01:25N 33°46' W 118°13'0 0.0
2017-Mar-16 22:25N 33°46' W 118°13'0 0.0
2017-Mar-16 19:33N 33°46' W 118°13'3 3.2
2017-Mar-16 18:33N 33°44' W 118°16'0 0.2
2017-Mar-16 17:27N 33°44' W 118°16'0 0.0
2017-Mar-16 16:27N 33°44' W 118°16'0 0.0
2017-Mar-16 15:30N 33°44' W 118°16'1 0.8
2017-Mar-16 14:32N 33°43' W 118°16'3 2.3
2017-Mar-16 13:03N 33°46' W 118°13'0 0.0
2017-Mar-16 12:30N 33°46' W 118°13'0 0.0
2017-Mar-16 11:33N 33°46' W 118°13'0 0.0
2017-Mar-16 10:33N 33°46' W 118°13'0 0.0
2017-Mar-16 09:33N 33°46' W 118°13'0 0.0
2017-Mar-16 08:33N 33°46' W 118°13'0 0.0
2017-Mar-16 07:33N 33°46' W 118°13'0 0.0
2017-Mar-16 06:33N 33°46' W 118°13'0 0.0
2017-Mar-16 05:33N 33°46' W 118°13'0 0.0
2017-Mar-16 04:33N 33°46' W 118°13'0 0.0
2017-Mar-16 03:30N 33°46' W 118°13'0 0.0
2017-Mar-16 02:33N 33°46' W 118°13'0 0.0
2017-Mar-16 01:27N 33°46' W 118°13'0 0.0
2017-Mar-15 23:27N 33°46' W 118°13'0 0.0
2017-Mar-15 22:21N 33°46' W 118°13'0 0.0
2017-Mar-15 21:33N 33°46' W 118°13'0 0.0
2017-Mar-15 20:33N 33°46' W 118°13'  
Track history (hours):
 
Tides and Currents Weather Stations Pressure Air Temp Water Temp Dewpoint Dewpoint Depression Visibility Wind Speed Wind Dir Waves Ship Positions

Tecumseh

Owner: Sause Bros. Inc., COOS BAY, OR. More information available from US FCC via Universal Licensing System and Coast Guard Vessel Documentation Center.

Last reported at 2017-Mar-25 20:26 UTC. Time now 2017-Mar-25 23:41 UTC.
Position N 38°20' W 123°46'.

Length 90 m; draft 5 m.

Type: Towing. MMSI: 367133160.

Date/timePositionNaut miles runAvg speedWind from/ knotsBaromVisibWave heightAir tempDewpointWater temp
2017-Mar-25 20:26N 38°20' W 123°46'7 7.5
2017-Mar-25 19:29N 38°15' W 123°39'7 7.4
2017-Mar-25 18:32N 38°13' W 123°31'7 7.0
2017-Mar-25 17:33N 38°10' W 123°23'7 6.8
2017-Mar-25 16:33N 38°06' W 123°16'7 6.9
2017-Mar-25 15:33N 38°01' W 123°10'7 7.2
2017-Mar-25 14:33N 37°56' W 123°03'7 7.3
2017-Mar-25 13:33N 37°53' W 122°55'8 7.4
2017-Mar-25 12:32N 37°49' W 122°47'7 7.0
2017-Mar-25 11:33N 37°46' W 122°39'8 7.7
2017-Mar-25 10:33N 37°49' W 122°30'6 6.3
2017-Mar-25 09:33N 37°54' W 122°25'1 1.4
2017-Mar-25 08:33N 37°55' W 122°25'0 0.1
2017-Mar-25 07:31N 37°55' W 122°25'0 0.0
2017-Mar-25 06:31N 37°55' W 122°25'0 0.0
2017-Mar-25 05:28N 37°55' W 122°25'0 0.0
2017-Mar-25 04:31N 37°55' W 122°25'0 0.0
2017-Mar-25 03:31N 37°55' W 122°25'0 0.0
2017-Mar-25 02:31N 37°55' W 122°25'0 0.0
2017-Mar-25 01:31N 37°55' W 122°25'0 0.0
2017-Mar-25 00:31N 37°55' W 122°25'0 0.0
2017-Mar-24 23:31N 37°55' W 122°25'0 0.0
2017-Mar-24 22:31N 37°55' W 122°25'0 0.0
2017-Mar-24 21:31N 37°55' W 122°25'0 0.0
2017-Mar-24 20:31N 37°55' W 122°25'0 0.0
2017-Mar-24 19:31N 37°55' W 122°25'0 0.0
2017-Mar-24 18:31N 37°55' W 122°25'0 0.0
2017-Mar-24 17:31N 37°55' W 122°25'0 0.0
2017-Mar-24 16:28N 37°55' W 122°25'0 0.0
2017-Mar-24 15:28N 37°55' W 122°25'0 0.1
2017-Mar-24 14:33N 37°55' W 122°25'1 1.5
2017-Mar-24 13:33N 37°54' W 122°26'8 7.8
2017-Mar-24 12:33N 37°47' W 122°23'0 0.2
2017-Mar-24 11:33N 37°46' W 122°23'0 0.0
2017-Mar-24 10:30N 37°46' W 122°23'0 0.0
2017-Mar-24 09:33N 37°46' W 122°23'0 0.0
2017-Mar-24 08:33N 37°46' W 122°23'0 0.0
2017-Mar-24 07:33N 37°46' W 122°23'0 0.0
2017-Mar-24 06:30N 37°46' W 122°23'0 0.0
2017-Mar-24 05:33N 37°46' W 122°23'0 0.0
2017-Mar-24 04:33N 37°46' W 122°23'0 0.0
2017-Mar-24 03:33N 37°46' W 122°23'0 0.0
2017-Mar-24 02:33N 37°46' W 122°23'0 0.0
2017-Mar-24 01:33N 37°46' W 122°23'0 0.0
2017-Mar-24 00:33N 37°46' W 122°23'0 0.0
2017-Mar-23 23:33N 37°46' W 122°23'0 0.0
2017-Mar-23 22:33N 37°46' W 122°23'0 0.0
2017-Mar-23 21:30N 37°46' W 122°23'0 0.0
2017-Mar-23 20:33N 37°46' W 122°23'0 0.0
2017-Mar-23 19:33N 37°46' W 122°23'0 0.0
2017-Mar-23 18:33N 37°46' W 122°23'0 0.0
2017-Mar-23 17:30N 37°46' W 122°23'0 0.0
2017-Mar-23 16:33N 37°46' W 122°23'0 0.0
2017-Mar-23 15:33N 37°46' W 122°23'0 0.0
2017-Mar-23 14:33N 37°46' W 122°23'0 0.0
2017-Mar-23 13:33N 37°46' W 122°23'0 0.0
2017-Mar-23 12:33N 37°46' W 122°23'0 0.0
2017-Mar-23 11:33N 37°46' W 122°23'0 0.0
2017-Mar-23 10:33N 37°46' W 122°23'0 0.0
2017-Mar-23 09:33N 37°46' W 122°23'0 0.0
2017-Mar-23 08:33N 37°46' W 122°23'0 0.0
2017-Mar-23 07:33N 37°46' W 122°23'0 0.0
2017-Mar-23 06:33N 37°46' W 122°23'0 0.0
2017-Mar-23 05:33N 37°46' W 122°23'0 0.0
2017-Mar-23 04:33N 37°46' W 122°23'0 0.0
2017-Mar-23 03:33N 37°46' W 122°23'0 0.0
2017-Mar-23 02:33N 37°46' W 122°23'0 0.0
2017-Mar-23 01:33N 37°46' W 122°23'0 0.0
2017-Mar-23 00:33N 37°46' W 122°23'0 0.0
2017-Mar-22 23:33N 37°46' W 122°23'0 0.0
2017-Mar-22 22:30N 37°46' W 122°23'0 0.0
2017-Mar-22 21:33N 37°46' W 122°23'0 0.0
2017-Mar-22 20:33N 37°46' W 122°23'0 0.0
2017-Mar-22 19:30N 37°46' W 122°23'0 0.0
2017-Mar-22 18:33N 37°46' W 122°23'0 0.0
2017-Mar-22 17:33N 37°46' W 122°23'0 0.0
2017-Mar-22 16:33N 37°46' W 122°23'0 0.0
2017-Mar-22 15:33N 37°46' W 122°23'0 0.0
2017-Mar-22 14:33N 37°46' W 122°23'0 0.0
2017-Mar-22 13:33N 37°46' W 122°23'0 0.0
2017-Mar-22 12:33N 37°46' W 122°23'0 0.0
2017-Mar-22 11:33N 37°46' W 122°23'0 0.0
2017-Mar-22 10:33N 37°46' W 122°23'0 0.0
2017-Mar-22 09:33N 37°46' W 122°23'0 0.0
2017-Mar-22 08:33N 37°46' W 122°23'0 0.0
2017-Mar-22 07:33N 37°46' W 122°23'0 0.0
2017-Mar-22 06:33N 37°46' W 122°23'0 0.0
2017-Mar-22 05:33N 37°46' W 122°23'0 0.0
2017-Mar-22 04:33N 37°46' W 122°23'0 0.0
2017-Mar-22 03:33N 37°46' W 122°23'0 0.0
2017-Mar-22 02:30N 37°46' W 122°23'0 0.0
2017-Mar-22 01:33N 37°46' W 122°23'0 0.0
2017-Mar-22 00:33N 37°46' W 122°23'0 0.0
2017-Mar-21 23:33N 37°46' W 122°23'0 0.0
2017-Mar-21 22:33N 37°46' W 122°23'0 0.0
2017-Mar-21 21:33N 37°46' W 122°23'0 0.0
2017-Mar-21 20:30N 37°46' W 122°23'0 0.0
2017-Mar-21 19:33N 37°46' W 122°23'0 0.0
2017-Mar-21 18:33N 37°46' W 122°23'0 0.0
2017-Mar-21 17:33N 37°46' W 122°23'0 0.0
2017-Mar-21 16:33N 37°46' W 122°23'0 0.0
2017-Mar-21 15:33N 37°46' W 122°23'0 0.0
2017-Mar-21 14:30N 37°46' W 122°23'0 0.0
2017-Mar-21 13:30N 37°46' W 122°23'0 0.0
2017-Mar-21 12:30N 37°46' W 122°23'0 0.0
2017-Mar-21 11:30N 37°46' W 122°23'0 0.0
2017-Mar-21 10:33N 37°46' W 122°23'0 0.0
2017-Mar-21 09:33N 37°46' W 122°23'0 0.0
2017-Mar-21 08:33N 37°46' W 122°23'0 0.0
2017-Mar-21 07:33N 37°46' W 122°23'0 0.0
2017-Mar-21 06:33N 37°46' W 122°23'0 0.0
2017-Mar-21 05:33N 37°46' W 122°23'0 0.0
2017-Mar-21 04:33N 37°46' W 122°23'0 0.0
2017-Mar-21 03:33N 37°46' W 122°23'0 0.0
2017-Mar-21 02:33N 37°46' W 122°23'0 0.0
2017-Mar-21 01:33N 37°46' W 122°23'0 0.4
2017-Mar-21 00:34N 37°47' W 122°23'6 5.9
2017-Mar-20 23:33N 37°49' W 122°30'7 7.5
2017-Mar-20 22:34N 37°46' W 122°38'8 8.3
2017-Mar-20 21:33N 37°37' W 122°40'8 8.4
2017-Mar-20 20:34N 37°29' W 122°40'9 8.9
2017-Mar-20 19:33N 37°20' W 122°40'9 8.6
2017-Mar-20 18:33N 37°12' W 122°41'18 8.4
2017-Mar-20 16:28N 36°54' W 122°44'8 8.2
2017-Mar-20 15:27N 36°46' W 122°43'18 9.3
2017-Mar-20 13:31N 36°29' W 122°34'9 9.4
2017-Mar-20 12:33N 36°21' W 122°29'9 8.9
2017-Mar-20 11:33N 36°13' W 122°25'8 8.4
2017-Mar-20 10:33N 36°05' W 122°20'10 9.1
2017-Mar-20 09:25N 35°56' W 122°14'8 9.3
2017-Mar-20 08:33N 35°49' W 122°10'9 8.9
2017-Mar-20 07:34N 35°41' W 122°05'9 8.6
2017-Mar-20 06:33N 35°33' W 122°00'8 8.5
2017-Mar-20 05:33N 35°27' W 121°54'9 9.0
2017-Mar-20 04:33N 35°19' W 121°49'9 8.9
2017-Mar-20 03:33N 35°11' W 121°43'9 9.0
2017-Mar-20 02:34N 35°03' W 121°38'9 8.8
2017-Mar-20 01:33N 34°56' W 121°32'9 9.0
2017-Mar-20 00:33N 34°48' W 121°27'9 9.1
2017-Mar-19 23:33N 34°40' W 121°21'9 9.2
2017-Mar-19 22:33N 34°32' W 121°15'9 9.4
2017-Mar-19 21:33N 34°24' W 121°10'10 9.8
2017-Mar-19 20:33N 34°14' W 121°06'10 9.7
2017-Mar-19 19:33N 34°06' W 121°00'9 9.1
2017-Mar-19 18:33N 34°01' W 120°51'9 9.3
2017-Mar-19 17:33N 33°57' W 120°41'9 9.4
2017-Mar-19 16:33N 33°53' W 120°31'10 9.6
2017-Mar-19 15:33N 33°49' W 120°20'10 9.7
2017-Mar-19 14:32N 33°45' W 120°10'9 9.3
2017-Mar-19 13:33N 33°44' W 119°59'1010.0
2017-Mar-19 12:33N 33°44' W 119°47'10 9.9
2017-Mar-19 11:32N 33°43' W 119°34'1010.0
2017-Mar-19 10:33N 33°42' W 119°23'10 9.6
2017-Mar-19 09:33N 33°41' W 119°11'9 9.3
2017-Mar-19 08:34N 33°41' W 119°00'10 9.8
2017-Mar-19 07:32N 33°40' W 118°48'9 9.4
2017-Mar-19 06:33N 33°39' W 118°37'9 9.3
2017-Mar-19 05:33N 33°39' W 118°26'9 9.3
2017-Mar-19 04:33N 33°39' W 118°15'6 5.9
2017-Mar-19 03:33N 33°44' W 118°13'2 2.1
2017-Mar-19 02:33N 33°46' W 118°13'0 0.1
2017-Mar-19 01:33N 33°46' W 118°13'0 0.3
2017-Mar-19 00:33N 33°46' W 118°13'0 0.0
2017-Mar-18 23:30N 33°46' W 118°13'0 0.0
2017-Mar-18 22:30N 33°46' W 118°13'0 0.0
2017-Mar-18 21:18N 33°46' W 118°13'0 0.0
2017-Mar-18 20:30N 33°46' W 118°13'0 0.0
2017-Mar-18 19:33N 33°46' W 118°13'0 0.0
2017-Mar-18 15:23N 33°46' W 118°13'0 0.2
2017-Mar-18 14:26N 33°46' W 118°13'0 0.0
2017-Mar-18 13:20N 33°46' W 118°13'0 0.0
2017-Mar-18 11:14N 33°46' W 118°13'0 0.0
2017-Mar-18 10:32N 33°46' W 118°13'0 0.0
2017-Mar-18 09:20N 33°46' W 118°13'0 0.0
2017-Mar-18 08:32N 33°46' W 118°13'0 0.0
2017-Mar-18 06:32N 33°46' W 118°13'0 0.0
2017-Mar-18 05:32N 33°46' W 118°13'0 0.0
2017-Mar-18 04:14N 33°46' W 118°13'0 0.0
2017-Mar-18 03:32N 33°46' W 118°13'0 0.0
2017-Mar-18 02:20N 33°46' W 118°13'0 0.0
2017-Mar-18 01:32N 33°46' W 118°13'0 0.0
2017-Mar-18 00:32N 33°46' W 118°13'0 0.0
2017-Mar-17 23:32N 33°46' W 118°13'0 0.0
2017-Mar-17 22:26N 33°46' W 118°13'0 0.0
2017-Mar-17 21:08N 33°46' W 118°13'0 0.0
2017-Mar-17 20:32N 33°46' W 118°13'0 0.0
2017-Mar-17 14:20N 33°46' W 118°13'0 0.0
2017-Mar-17 12:26N 33°46' W 118°13'0 0.1
2017-Mar-17 11:07N 33°46' W 118°13'0 0.2
2017-Mar-17 10:31N 33°46' W 118°13'0 0.0
2017-Mar-17 09:25N 33°46' W 118°13'0 0.0
2017-Mar-17 08:31N 33°46' W 118°13'0 0.0
2017-Mar-17 07:31N 33°46' W 118°13'0 0.0
2017-Mar-17 06:31N 33°46' W 118°13'0 0.0
2017-Mar-17 05:31N 33°46' W 118°13'0 0.0
2017-Mar-17 03:25N 33°46' W 118°13'0 0.0
2017-Mar-17 01:25N 33°46' W 118°13'0 0.0
2017-Mar-16 22:25N 33°46' W 118°13'0 0.0
2017-Mar-16 19:33N 33°46' W 118°13'3 3.2
2017-Mar-16 18:33N 33°44' W 118°16'0 0.2
2017-Mar-16 17:27N 33°44' W 118°16'0 0.0
2017-Mar-16 16:27N 33°44' W 118°16'0 0.0
2017-Mar-16 15:30N 33°44' W 118°16'1 0.8
2017-Mar-16 14:32N 33°43' W 118°16'3 2.3
2017-Mar-16 13:03N 33°46' W 118°13'0 0.0
2017-Mar-16 12:30N 33°46' W 118°13'0 0.0
2017-Mar-16 11:33N 33°46' W 118°13'0 0.0
2017-Mar-16 10:33N 33°46' W 118°13'0 0.0
2017-Mar-16 09:33N 33°46' W 118°13'0 0.0
2017-Mar-16 08:33N 33°46' W 118°13'0 0.0
2017-Mar-16 07:33N 33°46' W 118°13'0 0.0
2017-Mar-16 06:33N 33°46' W 118°13'0 0.0
2017-Mar-16 05:33N 33°46' W 118°13'0 0.0
2017-Mar-16 04:33N 33°46' W 118°13'0 0.0
2017-Mar-16 03:30N 33°46' W 118°13'0 0.0
2017-Mar-16 02:33N 33°46' W 118°13'0 0.0
2017-Mar-16 01:27N 33°46' W 118°13'0 0.0
2017-Mar-15 23:27N 33°46' W 118°13'0 0.0
2017-Mar-15 22:21N 33°46' W 118°13'0 0.0
2017-Mar-15 21:33N 33°46' W 118°13'0 0.0
2017-Mar-15 20:33N 33°46' W 118°13'  

Dump ship's entire track history